createdAt,value
2018-06-23T00:04:18.296Z,22.67
2018-06-23T00:06:46.093Z,14.03
2018-06-23T00:09:13.825Z,21.93
2018-06-23T00:14:24.550Z,16.60
2018-06-23T00:16:53.298Z,20.93
2018-06-23T00:21:54.567Z,12.80
2018-06-23T00:24:22.363Z,11.57
2018-06-23T00:26:50.363Z,17.90
2018-06-23T00:29:19.255Z,12.53
2018-06-23T00:31:47.018Z,22.47
2018-06-23T00:36:52.333Z,14.07
2018-06-23T00:39:20.086Z,26.77
2018-06-23T00:41:48.158Z,23.20
2018-06-23T00:46:50.806Z,23.10
2018-06-23T00:49:18.719Z,25.30
2018-06-23T00:59:56.192Z,27.17
2018-06-23T01:03:08.574Z,29.30
2018-06-23T01:05:37.314Z,27.97
2018-06-23T01:08:05.238Z,30.77
2018-06-23T01:10:33.241Z,12.37
2018-06-23T01:13:01.352Z,20.87
2018-06-23T01:15:29.243Z,27.27
2018-06-23T01:17:57.283Z,15.13
2018-06-23T01:23:15.956Z,23.17
2018-06-23T01:25:43.717Z,23.67
2018-06-23T01:28:11.851Z,16.57
2018-06-23T01:30:40.156Z,31.50
2018-06-23T01:33:07.974Z,19.53
2018-06-23T01:35:35.819Z,28.03
2018-06-23T01:38:03.917Z,36.47
2018-06-23T01:40:31.699Z,39.57
2018-06-23T01:42:59.846Z,17.60
2018-06-23T01:48:25.535Z,16.33
2018-06-23T01:50:53.765Z,25.47
2018-06-23T01:53:22.026Z,31.60
2018-06-23T01:55:50.166Z,20.80
2018-06-23T01:58:18.463Z,9.37
2018-06-23T02:00:46.801Z,16.27
2018-06-23T02:03:15.043Z,18.73
2018-06-23T02:05:42.988Z,36.97
2018-06-23T02:08:10.905Z,30.70
2018-06-23T02:10:39.135Z,28.03
2018-06-23T02:13:07.121Z,22.27
2018-06-23T02:17:42.462Z,22.57
2018-06-23T02:20:16.230Z,17.17
2018-06-23T02:22:49.711Z,10.13
2018-06-23T02:25:23.651Z,18.20
2018-06-23T02:27:56.997Z,26.53
2018-06-23T02:30:28.414Z,27.40
2018-06-23T02:32:56.633Z,17.20
2018-06-23T02:35:25.341Z,17.17
2018-06-23T02:37:53.247Z,14.23
2018-06-23T02:40:21.285Z,8.60
2018-06-23T02:42:49.105Z,20.57
2018-06-23T02:45:16.903Z,14.83
2018-06-23T02:47:44.900Z,14.33
2018-06-23T02:50:12.887Z,14.23
2018-06-23T02:52:40.888Z,14.83
2018-06-23T02:55:09.074Z,14.60
2018-06-23T02:57:38.248Z,12.57
2018-06-23T03:00:07.025Z,18.43
2018-06-23T03:02:35.119Z,15.60
2018-06-23T03:05:03.912Z,20.57
2018-06-23T03:07:31.726Z,7.57
2018-06-23T03:09:59.663Z,20.73
2018-06-23T03:12:27.525Z,15.60
2018-06-23T03:14:55.830Z,13.53
2018-06-23T03:17:23.815Z,10.57
2018-06-23T03:19:51.850Z,17.87
2018-06-23T03:22:21.024Z,14.33
2018-06-23T03:24:49.832Z,7.07
2018-06-23T03:27:17.794Z,11.17
2018-06-23T03:29:45.908Z,19.50
2018-06-23T03:32:14.015Z,15.70
2018-06-23T03:34:41.842Z,13.50
2018-06-23T03:37:10.438Z,13.57
2018-06-23T03:39:38.446Z,14.17
2018-06-23T03:42:06.487Z,7.23
2018-06-23T03:44:34.845Z,9.50
2018-06-23T03:47:03.350Z,16.53
2018-06-23T03:49:31.667Z,15.03
2018-06-23T03:52:05.721Z,9.57
2018-06-23T03:54:33.708Z,10.63
2018-06-23T03:57:01.670Z,3.90
2018-06-23T03:59:29.548Z,20.63
2018-06-23T04:01:57.448Z,12.27
2018-06-23T04:04:25.107Z,7.23
2018-06-23T04:06:52.997Z,19.87
2018-06-23T04:09:20.863Z,7.03
2018-06-23T04:11:48.744Z,12.60
2018-06-23T04:14:16.840Z,9.93
2018-06-23T04:16:45.082Z,9.17
2018-06-23T04:19:12.815Z,9.20
2018-06-23T04:21:40.580Z,9.50
2018-06-23T04:24:08.402Z,3.93
2018-06-23T04:26:36.236Z,13.80
2018-06-23T04:29:04.108Z,9.43
2018-06-23T04:31:32.133Z,9.27
2018-06-23T04:34:00.034Z,9.50
2018-06-23T04:36:28.042Z,8.13
2018-06-23T04:39:05.321Z,7.50
2018-06-23T04:41:33.168Z,20.87
2018-06-23T04:44:00.962Z,7.93
2018-06-23T04:46:28.974Z,11.27
2018-06-23T04:48:56.950Z,11.10
2018-06-23T04:51:24.778Z,3.77
2018-06-23T04:53:52.559Z,8.30
2018-06-23T04:56:20.352Z,7.63
2018-06-23T04:58:48.491Z,4.20
2018-06-23T05:01:16.461Z,14.60
2018-06-23T05:03:44.401Z,5.87
2018-06-23T05:06:12.396Z,5.80
2018-06-23T05:08:40.473Z,10.33
2018-06-23T05:11:08.598Z,6.43
2018-06-23T05:13:36.399Z,6.30
2018-06-23T05:16:04.911Z,6.70
2018-06-23T05:18:33.345Z,5.80
2018-06-23T05:21:01.373Z,10.53
2018-06-23T05:23:29.301Z,8.43
2018-06-23T05:25:57.341Z,5.27
2018-06-23T05:28:25.359Z,10.43
2018-06-23T05:30:53.401Z,6.40
2018-06-23T05:33:22.380Z,6.70
2018-06-23T05:35:50.796Z,8.17
2018-06-23T05:38:18.813Z,7.73
2018-06-23T05:40:46.592Z,2.77
2018-06-23T05:43:14.362Z,5.37
2018-06-23T05:45:42.980Z,12.20
2018-06-23T05:48:11.934Z,2.07
2018-06-23T05:50:39.969Z,6.63
2018-06-23T05:53:07.818Z,6.57
2018-06-23T05:55:35.626Z,5.90
2018-06-23T05:58:03.506Z,7.27
2018-06-23T06:00:31.259Z,10.43
2018-06-23T06:02:59.179Z,5.87
2018-06-23T06:05:27.064Z,6.83
2018-06-23T06:07:55.250Z,9.47
2018-06-23T06:10:23.516Z,5.30
2018-06-23T06:12:51.443Z,9.73
2018-06-23T06:15:19.265Z,8.90
2018-06-23T06:17:47.084Z,10.87
2018-06-23T06:20:15.756Z,4.77
2018-06-23T06:22:44.931Z,4.77
2018-06-23T06:25:13.639Z,7.90
2018-06-23T06:27:41.329Z,6.90
2018-06-23T06:30:10.131Z,10.10
2018-06-23T06:32:38.188Z,3.30
2018-06-23T06:35:06.922Z,11.53
2018-06-23T06:37:34.731Z,5.40
2018-06-23T06:40:03.878Z,8.03
2018-06-23T06:42:31.598Z,2.83
2018-06-23T06:44:59.488Z,6.30
2018-06-23T06:47:27.538Z,6.63
2018-06-23T06:49:55.516Z,5.90
2018-06-23T06:52:23.483Z,7.50
2018-06-23T06:54:51.246Z,6.43
2018-06-23T06:57:19.079Z,13.43
2018-06-23T06:59:47.070Z,4.30
2018-06-23T07:02:16.188Z,6.23
2018-06-23T07:04:44.268Z,1.37
2018-06-23T07:07:11.990Z,2.67
2018-06-23T07:09:39.906Z,5.10
2018-06-23T07:12:11.593Z,10.03
2018-06-23T07:14:39.416Z,4.17
2018-06-23T07:17:07.858Z,3.83
2018-06-23T07:19:35.788Z,1.73
2018-06-23T07:22:03.819Z,5.70
2018-06-23T07:24:31.700Z,5.10
2018-06-23T07:26:59.635Z,3.43
2018-06-23T07:29:27.491Z,5.67
2018-06-23T07:31:55.911Z,8.63
2018-06-23T07:34:25.677Z,2.30
2018-06-23T07:36:53.589Z,4.10
2018-06-23T07:39:21.559Z,4.40
2018-06-23T07:41:50.350Z,7.30
2018-06-23T07:44:18.104Z,7.43
2018-06-23T07:46:45.962Z,10.67
2018-06-23T07:49:13.742Z,1.03
2018-06-23T07:51:41.630Z,18.93
2018-06-23T07:54:12.803Z,3.47
2018-06-23T07:56:40.892Z,4.30
2018-06-23T07:59:08.969Z,8.90
2018-06-23T08:01:37.443Z,6.67
2018-06-23T08:04:05.281Z,3.60
2018-06-23T08:06:33.444Z,5.03
2018-06-23T08:09:02.713Z,4.73
2018-06-23T08:11:31.737Z,8.70
2018-06-23T08:13:59.886Z,3.30
2018-06-23T08:16:29.430Z,6.60
2018-06-23T08:18:57.995Z,5.30
2018-06-23T08:21:25.964Z,5.07
2018-06-23T08:23:53.915Z,2.20
2018-06-23T08:26:23.120Z,11.20
2018-06-23T08:28:51.324Z,8.10
2018-06-23T08:31:19.253Z,7.00
2018-06-23T08:33:47.265Z,5.83
2018-06-23T08:36:15.211Z,9.97
2018-06-23T08:38:43.197Z,3.53
2018-06-23T08:41:11.746Z,5.20
2018-06-23T08:43:39.849Z,11.70
2018-06-23T08:46:09.276Z,5.40
2018-06-23T08:48:37.075Z,6.60
2018-06-23T08:51:05.016Z,12.17
2018-06-23T08:53:32.813Z,7.40
2018-06-23T08:56:00.650Z,5.87
2018-06-23T08:58:28.663Z,5.03
2018-06-23T09:00:56.652Z,5.20
2018-06-23T09:03:24.453Z,14.77
2018-06-23T09:05:52.276Z,8.27
2018-06-23T09:08:20.634Z,15.63
2018-06-23T09:10:49.009Z,10.83
2018-06-23T09:13:16.921Z,8.33
2018-06-23T09:15:45.408Z,3.87
2018-06-23T09:18:13.664Z,5.37
2018-06-23T09:20:41.655Z,5.40
2018-06-23T09:23:09.614Z,5.23
2018-06-23T09:25:40.532Z,8.83
2018-06-23T09:28:09.245Z,5.20
2018-06-23T09:30:37.180Z,10.70
2018-06-23T09:33:05.243Z,9.40
2018-06-23T09:35:33.023Z,6.53
2018-06-23T09:38:00.993Z,6.37
2018-06-23T09:40:29.300Z,10.53
2018-06-23T09:42:57.081Z,4.27
2018-06-23T09:45:26.841Z,6.00
2018-06-23T09:47:54.668Z,10.70
2018-06-23T09:50:22.892Z,4.40
2018-06-23T09:52:53.156Z,3.30
2018-06-23T09:55:41.453Z,6.30
2018-06-23T09:58:25.213Z,3.43
2018-06-23T10:01:00.516Z,14.40
2018-06-23T10:03:28.628Z,5.93
2018-06-23T10:05:56.725Z,13.53
2018-06-23T10:08:25.120Z,7.13
2018-06-23T10:10:52.861Z,10.10
2018-06-23T10:13:20.836Z,7.23
2018-06-23T10:15:48.588Z,8.63
2018-06-23T10:18:16.283Z,10.10
2018-06-23T10:20:44.624Z,8.60
2018-06-23T10:23:12.680Z,5.87
2018-06-23T10:25:41.071Z,5.40
2018-06-23T10:28:09.395Z,8.07
2018-06-23T10:30:37.322Z,3.80
2018-06-23T10:33:05.571Z,7.47
2018-06-23T10:35:33.545Z,7.97
2018-06-23T10:38:01.645Z,5.87
2018-06-23T10:40:29.691Z,5.23
2018-06-23T10:42:57.765Z,6.93
2018-06-23T10:45:26.291Z,13.70
2018-06-23T10:47:54.541Z,7.37
2018-06-23T10:50:22.516Z,4.83
2018-06-23T10:52:50.587Z,7.63
2018-06-23T10:55:20.874Z,7.83
2018-06-23T10:57:48.922Z,3.37
2018-06-23T11:00:17.280Z,14.30
2018-06-23T11:02:45.453Z,9.53
2018-06-23T11:05:13.703Z,3.77
2018-06-23T11:07:41.684Z,3.53
2018-06-23T11:10:09.864Z,10.03
2018-06-23T11:12:38.289Z,7.13
2018-06-23T11:15:08.860Z,5.33
2018-06-23T11:17:37.021Z,4.27
2018-06-23T11:20:06.337Z,10.77
2018-06-23T11:22:35.638Z,2.17
2018-06-23T11:25:05.184Z,4.87
2018-06-23T11:27:33.626Z,9.13
2018-06-23T11:30:03.404Z,9.50
2018-06-23T11:32:31.553Z,6.53
2018-06-23T11:34:59.431Z,9.07
2018-06-23T11:37:28.732Z,4.27
2018-06-23T11:39:57.344Z,7.00
2018-06-23T11:42:28.510Z,8.13
2018-06-23T11:44:56.435Z,8.47
2018-06-23T11:47:26.277Z,9.87
2018-06-23T11:49:54.355Z,17.00
2018-06-23T11:52:22.180Z,11.30
2018-06-23T11:54:53.239Z,15.23
2018-06-23T11:57:21.357Z,6.70
2018-06-23T11:59:49.038Z,8.33
2018-06-23T12:02:16.828Z,9.30
2018-06-23T12:04:44.625Z,5.87
2018-06-23T12:07:12.458Z,10.60
2018-06-23T12:09:40.398Z,10.97
2018-06-23T12:12:08.208Z,18.37
2018-06-23T12:14:36.095Z,7.73
2018-06-23T12:17:04.134Z,4.43
2018-06-23T12:19:31.834Z,13.73
2018-06-23T12:21:59.695Z,8.47
2018-06-23T12:24:27.484Z,10.17
2018-06-23T12:26:55.385Z,7.23
2018-06-23T12:29:23.652Z,17.40
2018-06-23T12:31:51.404Z,7.23
2018-06-23T12:34:19.363Z,8.20
2018-06-23T12:36:47.406Z,5.93
2018-06-23T12:39:15.428Z,14.03
2018-06-23T12:41:43.933Z,23.93
2018-06-23T12:44:11.900Z,2.63
2018-06-23T12:46:40.010Z,6.40
2018-06-23T12:49:07.978Z,8.77
2018-06-23T12:51:35.870Z,8.90
2018-06-23T12:54:03.820Z,5.37
2018-06-23T12:56:31.646Z,7.03
2018-06-23T12:58:59.362Z,8.43
2018-06-23T13:01:28.452Z,7.83
2018-06-23T13:03:56.327Z,12.53
2018-06-23T13:06:24.233Z,17.33
2018-06-23T13:08:52.253Z,8.90
2018-06-23T13:11:20.106Z,9.87
2018-06-23T13:13:48.256Z,12.23
2018-06-23T13:16:16.216Z,19.23
2018-06-23T13:18:44.148Z,10.90
2018-06-23T13:21:12.122Z,15.50
2018-06-23T13:23:40.014Z,8.13
2018-06-23T13:26:07.947Z,7.70
2018-06-23T13:28:42.419Z,8.53
2018-06-23T13:31:10.892Z,7.20
2018-06-23T13:33:38.696Z,2.07
2018-06-23T13:36:06.806Z,6.30
2018-06-23T13:38:34.954Z,13.50
2018-06-23T13:41:07.864Z,7.87
2018-06-23T13:43:35.971Z,12.63
2018-06-23T13:58:20.598Z,7.20
2018-06-23T14:00:49.428Z,23.10
2018-06-23T14:15:50.240Z,12.40
2018-06-23T14:18:18.495Z,8.70
2018-06-23T14:26:17.736Z,6.00
2018-06-23T14:28:45.616Z,4.97
2018-06-23T14:31:23.765Z,3.70
2018-06-23T14:33:53.786Z,12.70
2018-06-23T14:36:25.521Z,9.60
2018-06-23T14:38:53.537Z,7.93
2018-06-23T14:41:25.219Z,6.10
2018-06-23T14:43:57.466Z,11.40
2018-06-23T14:46:33.755Z,5.00
2018-06-23T14:49:07.553Z,7.40
2018-06-23T14:51:38.088Z,5.10
2018-06-23T14:54:12.289Z,3.87
2018-06-23T14:56:50.848Z,6.20
2018-06-23T14:59:20.752Z,3.20
2018-06-23T15:01:49.829Z,13.60
2018-06-23T15:04:25.934Z,3.73
2018-06-23T15:15:36.024Z,2.00
2018-06-23T15:18:05.926Z,5.07
2018-06-23T15:20:40.460Z,2.00
2018-06-23T15:26:14.116Z,7.67
2018-06-23T15:28:44.755Z,5.13
2018-06-23T15:31:19.936Z,7.50
2018-06-23T15:33:48.175Z,4.40
2018-06-23T15:36:17.716Z,5.47
2018-06-23T15:38:45.712Z,2.10
2018-06-23T15:41:14.194Z,4.87
2018-06-23T15:43:42.368Z,2.70
2018-06-23T15:46:11.345Z,5.40
2018-06-23T15:49:00.640Z,2.03
2018-06-23T15:51:33.846Z,1.50
2018-06-23T15:56:49.585Z,3.83
2018-06-23T15:59:48.974Z,2.93
2018-06-23T16:02:16.862Z,5.90
2018-06-23T16:04:44.874Z,5.67
2018-06-23T16:07:13.521Z,5.23
2018-06-23T16:09:41.437Z,4.93
2018-06-23T16:12:10.544Z,8.77
2018-06-23T16:14:38.675Z,4.90
2018-06-23T16:17:06.641Z,7.70
2018-06-23T16:19:34.502Z,1.77
2018-06-23T16:22:02.587Z,5.63
2018-06-23T16:24:30.712Z,7.23
2018-06-23T16:26:58.501Z,3.10
2018-06-23T16:29:26.709Z,6.13
2018-06-23T16:31:54.848Z,4.27
2018-06-23T16:34:22.690Z,8.73
2018-06-23T16:36:50.578Z,8.10
2018-06-23T16:39:19.219Z,6.80
2018-06-23T16:41:47.488Z,6.43
2018-06-23T16:44:15.346Z,5.23
2018-06-23T16:46:45.112Z,4.67
2018-06-23T16:49:13.031Z,7.10
2018-06-23T16:51:40.991Z,3.30
2018-06-23T16:54:09.185Z,6.10
2018-06-23T16:56:37.463Z,3.23
2018-06-23T16:59:05.801Z,8.00
2018-06-23T17:01:33.752Z,7.63
2018-06-23T17:04:01.821Z,9.53
2018-06-23T17:06:30.742Z,14.20
2018-06-23T17:08:59.312Z,3.37
2018-06-23T17:11:30.438Z,8.30
2018-06-23T17:13:58.526Z,2.70
2018-06-23T17:16:26.507Z,6.63
2018-06-23T17:18:54.569Z,6.97
2018-06-23T17:21:24.325Z,2.97
2018-06-23T17:23:52.551Z,4.53
2018-06-23T17:26:20.824Z,7.90
2018-06-23T17:28:48.913Z,2.70
2018-06-23T17:31:17.284Z,2.50
2018-06-23T17:33:45.656Z,8.20
2018-06-23T17:36:13.903Z,15.13
2018-06-23T17:38:42.702Z,8.97
2018-06-23T17:41:10.940Z,3.00
2018-06-23T17:43:39.218Z,5.80
2018-06-23T17:46:07.207Z,3.70
2018-06-23T17:48:35.377Z,2.07
2018-06-23T17:51:03.293Z,10.63
2018-06-23T17:53:31.257Z,2.30
2018-06-23T17:55:59.564Z,7.67
2018-06-23T17:58:27.466Z,5.77
2018-06-23T18:00:55.536Z,6.13
2018-06-23T18:03:23.377Z,9.30
2018-06-23T18:05:51.641Z,1.63
2018-06-23T18:08:19.836Z,8.83
2018-06-23T18:10:48.038Z,6.07
2018-06-23T18:13:16.239Z,5.37
2018-06-23T18:15:44.463Z,3.23
2018-06-23T18:18:12.569Z,5.40
2018-06-23T18:20:40.717Z,5.63
2018-06-23T18:23:08.789Z,5.60
2018-06-23T18:25:36.977Z,2.83
2018-06-23T18:28:04.750Z,5.60
2018-06-23T18:30:32.657Z,3.37
2018-06-23T18:33:01.979Z,6.20
2018-06-23T18:35:34.737Z,8.90
2018-06-23T18:38:03.926Z,5.77
2018-06-23T18:40:31.766Z,1.30
2018-06-23T18:42:59.590Z,7.27
2018-06-23T18:45:27.360Z,2.30
2018-06-23T18:47:55.282Z,9.67
2018-06-23T18:50:24.378Z,4.73
2018-06-23T18:52:52.597Z,7.40
2018-06-23T18:55:20.506Z,6.07
2018-06-23T18:57:52.602Z,10.17
2018-06-23T19:00:21.658Z,8.43
2018-06-23T19:05:43.061Z,5.27
2018-06-23T19:08:11.117Z,5.70
2018-06-23T19:10:39.133Z,3.43
2018-06-23T19:13:07.236Z,6.40
2018-06-23T19:15:35.464Z,7.77
2018-06-23T19:18:03.698Z,11.03
2018-06-23T19:20:31.892Z,11.63
2018-06-23T19:22:59.916Z,5.67
2018-06-23T19:25:28.042Z,4.10
2018-06-23T19:27:56.501Z,5.63
2018-06-23T19:30:24.321Z,15.53
2018-06-23T19:32:53.014Z,19.10
2018-06-23T19:35:21.097Z,6.10
2018-06-23T19:37:49.259Z,9.20
2018-06-23T19:40:17.477Z,5.70
2018-06-23T19:42:45.466Z,4.60
2018-06-23T19:45:13.596Z,5.00
2018-06-23T19:47:42.258Z,4.43
2018-06-23T19:50:10.714Z,9.33
2018-06-23T19:52:42.503Z,7.90
2018-06-23T19:55:10.338Z,4.97
2018-06-23T19:57:39.694Z,8.40
2018-06-23T20:00:07.846Z,3.07
2018-06-23T20:02:35.785Z,4.80
2018-06-23T20:05:03.946Z,2.97
2018-06-23T20:07:31.729Z,5.43
2018-06-23T20:09:59.695Z,8.43
2018-06-23T20:12:27.608Z,8.10
2018-06-23T20:14:55.445Z,5.93
2018-06-23T20:17:23.394Z,2.27
2018-06-23T20:19:51.091Z,11.23
2018-06-23T20:22:19.389Z,8.87
2018-06-23T20:24:52.896Z,6.50
2018-06-23T20:27:32.881Z,6.93
2018-06-23T20:30:01.338Z,7.00
2018-06-23T20:32:29.417Z,9.73
2018-06-23T20:34:58.273Z,5.00
2018-06-23T20:37:26.303Z,3.63
2018-06-23T20:39:54.570Z,6.20
2018-06-23T20:42:22.417Z,8.40
2018-06-23T20:44:50.347Z,6.80
2018-06-23T20:47:18.123Z,9.03
2018-06-23T20:49:45.908Z,5.63
2018-06-23T20:52:13.728Z,7.70
2018-06-23T20:54:41.680Z,4.97
2018-06-23T20:57:09.577Z,4.17
2018-06-23T20:59:37.517Z,11.97
2018-06-23T21:02:06.084Z,8.40
2018-06-23T21:04:34.125Z,5.47
2018-06-23T21:07:02.924Z,6.43
2018-06-23T21:09:30.646Z,6.73
2018-06-23T21:11:58.676Z,8.77
2018-06-23T21:14:26.924Z,9.10
2018-06-23T21:16:56.056Z,11.43
2018-06-23T21:19:23.964Z,8.70
2018-06-23T21:21:51.777Z,6.20
2018-06-23T21:24:19.763Z,9.67
2018-06-23T21:26:48.306Z,8.30
2018-06-23T21:29:16.329Z,6.70
2018-06-23T21:31:44.269Z,8.20
2018-06-23T21:34:12.732Z,8.37
2018-06-23T21:36:40.740Z,12.00
2018-06-23T21:39:10.162Z,3.80
2018-06-23T21:41:42.266Z,8.00
2018-06-23T21:44:10.358Z,12.13
2018-06-23T21:46:39.876Z,6.23
2018-06-23T21:49:08.837Z,7.70
2018-06-23T21:51:37.466Z,6.67
2018-06-23T21:54:05.495Z,6.90
2018-06-23T21:56:34.248Z,7.13
2018-06-23T21:59:02.136Z,9.73
2018-06-23T22:01:30.223Z,6.27
2018-06-23T22:03:58.531Z,4.60
2018-06-23T22:06:26.630Z,3.53
2018-06-23T22:08:55.456Z,9.47
2018-06-23T22:11:23.722Z,8.50
2018-06-23T22:13:51.573Z,8.67
2018-06-23T22:16:21.211Z,5.67
2018-06-23T22:18:49.190Z,5.60
2018-06-23T22:21:17.225Z,7.50
2018-06-23T22:23:45.533Z,2.20
2018-06-23T22:26:13.796Z,10.97
2018-06-23T22:28:41.755Z,6.83
2018-06-23T22:31:09.735Z,9.80
2018-06-23T22:33:38.781Z,6.33
2018-06-23T22:36:06.986Z,12.73
2018-06-23T22:38:34.900Z,6.10
2018-06-23T22:41:02.890Z,11.43
2018-06-23T22:43:31.273Z,14.00
2018-06-23T22:45:59.154Z,2.17
2018-06-23T22:48:27.119Z,6.40
2018-06-23T22:50:55.160Z,7.47
2018-06-23T22:53:23.269Z,2.80
2018-06-23T22:55:51.456Z,4.77
2018-06-23T22:58:19.272Z,3.90
2018-06-23T23:00:47.417Z,5.87
2018-06-23T23:03:16.457Z,4.80
2018-06-23T23:05:44.344Z,6.83
2018-06-23T23:08:12.407Z,11.20
2018-06-23T23:10:40.333Z,9.27
2018-06-23T23:13:08.393Z,8.43
2018-06-23T23:15:36.623Z,10.90
2018-06-23T23:18:06.034Z,2.53
2018-06-23T23:20:40.683Z,5.73
2018-06-23T23:23:09.334Z,6.73
2018-06-23T23:25:37.977Z,6.90
2018-06-23T23:28:05.828Z,9.97
2018-06-23T23:30:34.281Z,3.87
2018-06-23T23:33:02.163Z,5.83
2018-06-23T23:35:30.177Z,9.50
2018-06-23T23:37:58.306Z,8.47
2018-06-23T23:40:26.145Z,13.43
2018-06-23T23:42:54.494Z,13.77
2018-06-23T23:45:23.821Z,3.53
2018-06-23T23:47:51.965Z,9.13
2018-06-23T23:50:19.869Z,2.50
2018-06-23T23:52:48.022Z,5.70
2018-06-23T23:55:15.948Z,3.00
2018-06-23T23:57:44.351Z,3.83
